createdAt,value
2018-08-10T00:02:12.125Z,1.50
2018-08-10T00:04:40.289Z,1.40
2018-08-10T00:07:08.457Z,1.33
2018-08-10T00:09:36.629Z,0.97
2018-08-10T00:12:04.863Z,1.50
2018-08-10T00:14:33.009Z,1.07
2018-08-10T00:17:01.221Z,1.40
2018-08-10T00:19:29.144Z,1.20
2018-08-10T00:21:57.309Z,1.60
2018-08-10T00:24:25.483Z,1.40
2018-08-10T00:26:53.665Z,1.20
2018-08-10T00:29:21.896Z,1.40
2018-08-10T00:31:50.082Z,1.10
2018-08-10T00:34:18.340Z,1.43
2018-08-10T00:36:46.529Z,1.57
2018-08-10T00:39:15.045Z,1.50
2018-08-10T00:41:44.025Z,1.40
2018-08-10T00:44:12.225Z,1.47
2018-08-10T00:46:40.424Z,1.33
2018-08-10T00:49:08.593Z,1.50
2018-08-10T00:51:36.765Z,1.30
2018-08-10T00:54:04.933Z,1.13
2018-08-10T00:56:33.126Z,1.40
2018-08-10T00:59:01.047Z,1.10
2018-08-10T01:01:29.206Z,1.00
2018-08-10T01:03:57.378Z,1.00
2018-08-10T01:06:25.561Z,1.27
2018-08-10T01:08:53.732Z,1.10
2018-08-10T01:11:21.895Z,0.87
2018-08-10T01:13:50.054Z,1.00
2018-08-10T01:16:18.221Z,0.90
2018-08-10T01:18:46.132Z,0.77
2018-08-10T01:21:14.294Z,0.80
2018-08-10T01:23:42.203Z,0.80
2018-08-10T01:26:10.369Z,0.60
2018-08-10T01:28:38.547Z,0.80
2018-08-10T01:31:06.686Z,0.70
2018-08-10T01:33:34.604Z,0.87
2018-08-10T01:36:02.756Z,0.60
2018-08-10T01:38:30.900Z,0.80
2018-08-10T01:40:58.824Z,0.70
2018-08-10T01:43:26.993Z,0.80
2018-08-10T01:45:55.150Z,0.70
2018-08-10T01:48:23.303Z,0.80
2018-08-10T01:50:51.453Z,0.70
2018-08-10T01:53:19.438Z,0.70
2018-08-10T01:55:47.593Z,0.97
2018-08-10T01:58:15.506Z,0.60
2018-08-10T02:00:43.409Z,0.80
2018-08-10T02:03:11.303Z,0.60
2018-08-10T02:05:39.445Z,0.60
2018-08-10T02:08:07.596Z,0.90
2018-08-10T02:10:35.565Z,0.50
2018-08-10T02:13:03.682Z,0.73
2018-08-10T02:15:31.833Z,0.90
2018-08-10T02:17:59.964Z,0.63
2018-08-10T02:20:28.134Z,0.67
2018-08-10T02:22:56.272Z,0.70
2018-08-10T02:25:24.217Z,0.90
2018-08-10T02:27:52.221Z,0.60
2018-08-10T02:30:21.333Z,0.77
2018-08-10T02:32:49.929Z,0.70
2018-08-10T02:35:18.089Z,0.53
2018-08-10T02:37:46.229Z,0.80
2018-08-10T02:40:16.846Z,0.63
2018-08-10T02:42:45.890Z,0.60
2018-08-10T02:45:14.312Z,0.63
2018-08-10T02:47:42.488Z,0.60
2018-08-10T02:50:10.660Z,0.70
2018-08-10T02:52:38.816Z,0.70
2018-08-10T02:55:07.297Z,0.67
2018-08-10T02:57:35.605Z,0.77
2018-08-10T03:00:04.508Z,0.60
2018-08-10T03:02:32.773Z,0.63
2018-08-10T03:05:00.907Z,0.60
2018-08-10T03:07:29.058Z,0.70
2018-08-10T03:09:57.178Z,0.67
2018-08-10T03:12:25.313Z,0.57
2018-08-10T03:14:53.212Z,0.60
2018-08-10T03:17:21.368Z,0.60
2018-08-10T03:19:49.489Z,0.60
2018-08-10T03:22:17.717Z,0.53
2018-08-10T03:24:45.786Z,0.60
2018-08-10T03:27:13.926Z,0.57
2018-08-10T03:29:42.058Z,0.60
2018-08-10T03:32:10.206Z,0.53
2018-08-10T03:34:38.328Z,0.77
2018-08-10T03:37:06.484Z,0.50
2018-08-10T03:39:34.623Z,0.70
2018-08-10T03:42:02.524Z,0.73
2018-08-10T03:44:30.660Z,0.67
2018-08-10T03:46:58.800Z,0.63
2018-08-10T03:49:26.719Z,0.73
2018-08-10T03:51:54.873Z,0.50
2018-08-10T03:54:23.017Z,0.70
2018-08-10T03:56:51.134Z,0.70
2018-08-10T03:59:19.280Z,0.50
2018-08-10T04:01:47.429Z,1.47
2018-08-10T04:04:15.562Z,0.60
2018-08-10T04:06:43.721Z,0.40
2018-08-10T04:09:12.519Z,0.70
2018-08-10T04:11:41.297Z,0.60
2018-08-10T04:14:09.469Z,0.70
2018-08-10T04:16:37.421Z,0.70
2018-08-10T04:19:05.605Z,0.60
2018-08-10T04:21:33.777Z,0.80
2018-08-10T04:24:02.009Z,0.60
2018-08-10T04:26:30.145Z,0.60
2018-08-10T04:28:58.316Z,0.80
2018-08-10T04:31:26.460Z,0.60
2018-08-10T04:33:54.605Z,0.63
2018-08-10T04:36:22.730Z,0.90
2018-08-10T04:38:50.781Z,0.60
2018-08-10T04:41:18.910Z,0.70
2018-08-10T04:43:47.056Z,0.80
2018-08-10T04:46:15.177Z,0.80
2018-08-10T04:48:43.293Z,0.60
2018-08-10T04:51:11.441Z,0.50
2018-08-10T04:53:39.593Z,0.70
2018-08-10T04:56:07.726Z,0.60
2018-08-10T04:58:35.858Z,0.80
2018-08-10T05:01:03.997Z,0.70
2018-08-10T05:03:31.909Z,0.70
2018-08-10T05:06:00.065Z,0.80
2018-08-10T05:08:27.968Z,0.80
2018-08-10T05:10:56.109Z,0.90
2018-08-10T05:13:24.284Z,0.80
2018-08-10T05:15:52.462Z,0.70
2018-08-10T05:18:20.545Z,0.70
2018-08-10T05:20:48.739Z,0.60
2018-08-10T05:23:16.861Z,0.80
2018-08-10T05:25:45.019Z,0.80
2018-08-10T05:28:13.117Z,0.83
2018-08-10T05:30:41.285Z,0.77
2018-08-10T05:33:09.449Z,0.93
2018-08-10T05:35:37.632Z,0.90
2018-08-10T05:38:05.539Z,0.80
2018-08-10T05:40:33.897Z,0.80
2018-08-10T05:43:02.071Z,0.87
2018-08-10T05:45:29.984Z,0.70
2018-08-10T05:47:57.909Z,1.10
2018-08-10T05:50:26.091Z,0.80
2018-08-10T05:52:54.228Z,0.80
2018-08-10T05:55:22.445Z,0.93
2018-08-10T05:57:50.368Z,1.03
2018-08-10T06:00:18.272Z,1.00
2018-08-10T06:02:46.466Z,1.10
2018-08-10T06:05:14.625Z,0.70
2018-08-10T06:07:42.575Z,0.90
2018-08-10T06:10:10.949Z,0.90
2018-08-10T06:12:39.156Z,0.77
2018-08-10T06:15:08.379Z,0.60
2018-08-10T06:17:36.529Z,0.63
2018-08-10T06:20:07.462Z,0.70
2018-08-10T06:22:35.666Z,0.60
2018-08-10T06:25:04.250Z,0.73
2018-08-10T06:27:32.381Z,0.67
2018-08-10T06:30:00.525Z,0.90
2018-08-10T06:32:28.430Z,0.70
2018-08-10T06:34:56.578Z,0.60
2018-08-10T06:37:28.668Z,0.60
2018-08-10T06:39:56.593Z,0.60
2018-08-10T06:42:24.520Z,0.63
2018-08-10T06:44:52.686Z,0.90
2018-08-10T06:47:20.837Z,0.47
2018-08-10T06:49:48.977Z,0.60
2018-08-10T06:52:17.214Z,0.93
2018-08-10T06:54:45.362Z,0.70
2018-08-10T06:57:13.517Z,0.77
2018-08-10T06:59:41.685Z,0.70
2018-08-10T07:02:09.842Z,0.80
2018-08-10T07:04:38.028Z,0.73
2018-08-10T07:07:06.188Z,0.60
2018-08-10T07:09:34.365Z,0.83
2018-08-10T07:12:02.280Z,0.70
2018-08-10T07:14:30.426Z,0.60
2018-08-10T07:16:58.578Z,0.63
2018-08-10T07:19:26.722Z,0.50
2018-08-10T07:21:54.859Z,0.50
2018-08-10T07:24:22.993Z,0.60
2018-08-10T07:26:51.145Z,0.40
2018-08-10T07:29:19.308Z,0.67
2018-08-10T07:31:47.272Z,0.90
2018-08-10T07:34:15.416Z,0.53
2018-08-10T07:36:43.513Z,0.70
2018-08-10T07:39:12.674Z,0.60
2018-08-10T07:41:41.362Z,0.60
2018-08-10T07:44:09.524Z,0.60
2018-08-10T07:46:37.955Z,1.37
2018-08-10T07:49:06.373Z,0.30
2018-08-10T07:51:34.502Z,0.60
2018-08-10T07:54:02.418Z,0.83
2018-08-10T07:56:30.569Z,0.60
2018-08-10T07:58:58.764Z,0.60
2018-08-10T08:01:26.631Z,0.67
2018-08-10T08:03:54.776Z,0.60
2018-08-10T08:06:22.896Z,0.70
2018-08-10T08:08:51.022Z,0.30
2018-08-10T08:11:19.157Z,0.50
2018-08-10T08:13:47.328Z,0.63
2018-08-10T08:16:15.192Z,0.57
2018-08-10T08:18:43.432Z,0.60
2018-08-10T08:21:12.906Z,0.40
2018-08-10T08:23:41.035Z,0.50
2018-08-10T08:26:09.180Z,0.60
2018-08-10T08:28:37.683Z,0.80
2018-08-10T08:31:05.973Z,0.70
2018-08-10T08:33:44.249Z,0.60
2018-08-10T08:36:12.818Z,0.60
2018-08-10T08:39:51.754Z,0.63
2018-08-10T08:42:19.898Z,0.60
2018-08-10T08:44:56.213Z,0.60
2018-08-10T08:47:24.630Z,0.57
2018-08-10T08:49:53.597Z,0.83
2018-08-10T08:52:22.328Z,0.57
2018-08-10T08:55:05.639Z,0.50
2018-08-10T08:57:35.071Z,0.60
2018-08-10T09:00:10.078Z,0.60
2018-08-10T09:02:38.057Z,0.50
2018-08-10T09:05:08.877Z,0.40
2018-08-10T09:07:37.212Z,0.80
2018-08-10T09:10:11.242Z,0.60
2018-08-10T09:12:39.352Z,0.40
2018-08-10T09:15:08.938Z,0.60
2018-08-10T09:17:37.171Z,0.60
2018-08-10T09:20:05.682Z,0.53
2018-08-10T09:22:34.402Z,0.40
2018-08-10T09:25:02.312Z,0.60
2018-08-10T09:27:30.457Z,0.50
2018-08-10T09:29:58.455Z,0.43
2018-08-10T09:32:26.633Z,0.83
2018-08-10T09:34:54.595Z,0.70
2018-08-10T09:37:22.502Z,0.50
2018-08-10T09:39:50.644Z,0.67
2018-08-10T09:42:18.873Z,0.50
2018-08-10T09:44:47.001Z,0.77
2018-08-10T09:47:14.918Z,0.50
2018-08-10T09:49:44.453Z,0.70
2018-08-10T09:52:12.362Z,0.60
2018-08-10T09:54:40.749Z,0.60
2018-08-10T09:57:09.396Z,0.43
2018-08-10T09:59:37.586Z,0.50
2018-08-10T10:02:08.737Z,0.47
2018-08-10T10:04:36.909Z,0.50
2018-08-10T10:07:05.110Z,0.60
2018-08-10T10:09:33.282Z,0.60
2018-08-10T10:12:01.483Z,0.40
2018-08-10T10:14:30.490Z,0.70
2018-08-10T10:16:58.702Z,0.60
2018-08-10T10:19:26.852Z,0.70
2018-08-10T10:21:55.045Z,0.70
2018-08-10T10:24:23.217Z,0.70
2018-08-10T10:26:51.160Z,0.50
2018-08-10T10:29:19.356Z,0.60
2018-08-10T10:31:47.964Z,0.60
2018-08-10T10:34:15.951Z,0.70
2018-08-10T10:36:44.167Z,0.50
2018-08-10T10:39:12.826Z,0.57
2018-08-10T10:41:41.328Z,0.50
2018-08-10T10:44:09.789Z,0.70
2018-08-10T10:46:37.707Z,0.50
2018-08-10T10:49:05.665Z,0.50
2018-08-10T10:51:33.842Z,0.63
2018-08-10T10:54:02.025Z,0.60
2018-08-10T10:56:30.016Z,0.60
2018-08-10T10:58:57.931Z,0.43
2018-08-10T11:01:26.093Z,0.60
2018-08-10T11:03:54.264Z,0.50
2018-08-10T11:06:22.517Z,0.70
2018-08-10T11:08:50.651Z,0.60
2018-08-10T11:11:18.869Z,0.53
2018-08-10T11:13:47.036Z,0.50
2018-08-10T11:16:15.219Z,0.80
2018-08-10T11:18:43.385Z,0.60
2018-08-10T11:21:11.624Z,0.80
2018-08-10T11:23:39.772Z,0.60
2018-08-10T11:26:07.983Z,0.43
2018-08-10T11:28:36.142Z,0.60
2018-08-10T11:31:04.341Z,0.60
2018-08-10T11:33:32.516Z,0.50
2018-08-10T11:36:00.701Z,0.60
2018-08-10T11:38:28.618Z,0.50
2018-08-10T11:40:56.787Z,0.50
2018-08-10T11:43:24.974Z,0.67
2018-08-10T11:45:53.149Z,0.50
2018-08-10T11:48:21.313Z,0.60
2018-08-10T11:50:49.512Z,0.60
2018-08-10T11:53:17.432Z,0.60
2018-08-10T11:55:45.594Z,0.70
2018-08-10T11:58:13.765Z,0.70
2018-08-10T12:00:41.755Z,0.57
2018-08-10T12:03:09.706Z,1.07
2018-08-10T12:05:37.876Z,0.77
2018-08-10T12:08:05.851Z,0.60
2018-08-10T12:10:34.000Z,0.73
2018-08-10T12:13:02.177Z,0.80
2018-08-10T12:15:30.329Z,0.80
2018-08-10T12:17:58.264Z,0.63
2018-08-10T12:20:26.184Z,0.60
2018-08-10T12:22:54.348Z,0.70
2018-08-10T12:25:22.493Z,0.60
2018-08-10T12:27:50.648Z,0.80
2018-08-10T12:30:18.919Z,0.77
2018-08-10T12:32:47.016Z,0.80
2018-08-10T12:35:15.166Z,0.80
2018-08-10T12:37:43.441Z,0.67
2018-08-10T12:40:11.357Z,0.70
2018-08-10T12:42:39.679Z,0.60
2018-08-10T12:45:07.876Z,0.80
2018-08-10T12:47:36.284Z,0.50
2018-08-10T12:50:04.308Z,0.80
2018-08-10T12:52:32.451Z,0.87
2018-08-10T12:55:00.614Z,1.10
2018-08-10T12:57:29.428Z,0.70
2018-08-10T12:59:57.333Z,1.27
2018-08-10T13:02:25.540Z,0.83
2018-08-10T13:04:53.704Z,0.63
2018-08-10T13:07:21.684Z,0.80
2018-08-10T13:09:49.864Z,0.83
2018-08-10T13:12:17.788Z,0.93
2018-08-10T13:14:45.944Z,0.80
2018-08-10T13:17:13.945Z,1.03
2018-08-10T13:19:42.097Z,0.63
2018-08-10T13:22:10.253Z,0.60
2018-08-10T13:24:38.195Z,0.80
2018-08-10T13:27:06.470Z,0.60
2018-08-10T13:29:34.645Z,0.70
2018-08-10T13:32:02.800Z,0.70
2018-08-10T13:34:30.960Z,0.70
2018-08-10T13:36:59.126Z,0.70
2018-08-10T13:39:27.297Z,0.70
2018-08-10T13:41:55.397Z,0.73
2018-08-10T13:44:23.336Z,0.87
2018-08-10T13:46:52.080Z,0.60
2018-08-10T13:49:20.008Z,0.90
2018-08-10T13:51:48.161Z,1.27
2018-08-10T13:54:19.233Z,0.50
2018-08-10T13:56:52.104Z,0.73
2018-08-10T13:59:20.387Z,0.80
2018-08-10T14:01:48.563Z,0.70
2018-08-10T14:04:16.714Z,0.70
2018-08-10T14:06:47.677Z,0.77
2018-08-10T14:09:15.603Z,0.73
2018-08-10T14:11:43.576Z,0.73
2018-08-10T14:14:11.752Z,0.97
2018-08-10T14:16:39.949Z,0.87
2018-08-10T14:19:08.078Z,1.20
2018-08-10T14:21:37.211Z,0.70
2018-08-10T14:24:05.164Z,0.70
2018-08-10T14:26:33.314Z,0.70
2018-08-10T14:29:01.245Z,0.70
2018-08-10T14:31:29.213Z,0.83
2018-08-10T14:33:57.173Z,0.70
2018-08-10T14:36:25.338Z,0.70
2018-08-10T14:38:53.525Z,1.10
2018-08-10T14:41:21.793Z,0.80
2018-08-10T14:43:50.072Z,0.83
2018-08-10T14:46:18.288Z,0.90
2018-08-10T14:48:46.399Z,1.07
2018-08-10T14:51:14.586Z,0.80
2018-08-10T14:53:42.874Z,0.73
2018-08-10T14:56:11.016Z,0.90
2018-08-10T14:58:38.944Z,1.00
2018-08-10T15:01:07.038Z,0.80
2018-08-10T15:03:35.113Z,1.00
2018-08-10T15:06:03.369Z,0.90
2018-08-10T15:08:31.820Z,0.80
2018-08-10T15:10:59.998Z,0.80
2018-08-10T15:13:28.159Z,0.90
2018-08-10T15:15:56.345Z,0.93
2018-08-10T15:18:24.542Z,1.00
2018-08-10T15:20:52.714Z,0.90
2018-08-10T15:23:20.635Z,0.77
2018-08-10T15:25:48.800Z,0.80
2018-08-10T15:28:16.967Z,0.87
2018-08-10T15:30:45.224Z,0.80
2018-08-10T15:33:13.071Z,0.87
2018-08-10T15:35:41.009Z,0.93
2018-08-10T15:38:08.916Z,0.90
2018-08-10T15:40:37.093Z,0.77
2018-08-10T15:43:05.294Z,0.70
2018-08-10T15:45:33.212Z,0.90
2018-08-10T15:48:01.374Z,0.70
2018-08-10T15:50:29.322Z,1.00
2018-08-10T15:52:57.503Z,1.13
2018-08-10T15:55:25.489Z,0.80
2018-08-10T15:57:53.425Z,0.87
2018-08-10T16:00:23.042Z,0.80
2018-08-10T16:02:51.244Z,1.03
2018-08-10T16:05:19.207Z,0.77
2018-08-10T16:07:49.124Z,1.10
2018-08-10T16:10:17.341Z,0.93
2018-08-10T16:12:45.536Z,1.00
2018-08-10T16:15:14.938Z,0.60
2018-08-10T16:17:42.881Z,0.90
2018-08-10T16:20:12.813Z,0.60
2018-08-10T16:22:40.996Z,0.87
2018-08-10T16:25:10.496Z,0.80
2018-08-10T16:27:38.992Z,0.90
2018-08-10T16:30:08.996Z,0.77
2018-08-10T16:32:37.489Z,0.90
2018-08-10T16:35:06.945Z,0.70
2018-08-10T16:37:35.229Z,3.27
2018-08-10T16:40:04.547Z,1.40
2018-08-10T16:42:32.753Z,1.00
2018-08-10T16:45:00.979Z,0.77
2018-08-10T16:47:29.166Z,0.80
2018-08-10T16:49:57.345Z,0.97
2018-08-10T16:52:25.518Z,0.83
2018-08-10T16:54:53.748Z,0.77
2018-08-10T16:57:21.985Z,1.00
2018-08-10T16:59:50.141Z,0.90
2018-08-10T17:02:18.365Z,0.77
2018-08-10T17:04:46.564Z,0.90
2018-08-10T17:07:14.777Z,0.97
2018-08-10T17:09:43.008Z,0.80
2018-08-10T17:12:10.951Z,0.90
2018-08-10T17:14:39.187Z,0.87
2018-08-10T17:17:07.107Z,1.30
2018-08-10T17:19:35.032Z,1.00
2018-08-10T17:22:03.224Z,0.80
2018-08-10T17:24:31.381Z,1.13
2018-08-10T17:26:59.583Z,0.80
2018-08-10T17:29:27.778Z,0.90
2018-08-10T17:31:55.748Z,1.10
2018-08-10T17:34:23.941Z,0.70
2018-08-10T17:36:52.097Z,0.93
2018-08-10T17:39:20.147Z,0.97
2018-08-10T17:41:48.262Z,0.80
2018-08-10T17:44:16.455Z,1.20
2018-08-10T17:46:44.633Z,0.90
2018-08-10T17:49:12.853Z,1.23
2018-08-10T17:51:41.045Z,1.20
2018-08-10T17:54:09.321Z,1.20
2018-08-10T17:56:37.493Z,1.07
2018-08-10T17:59:05.854Z,0.90
2018-08-10T18:01:33.957Z,1.00
2018-08-10T18:04:01.884Z,0.93
2018-08-10T18:06:29.849Z,1.07
2018-08-10T18:08:57.788Z,0.90
2018-08-10T18:11:25.978Z,0.90
2018-08-10T18:13:54.141Z,1.40
2018-08-10T18:16:22.088Z,1.13
2018-08-10T18:18:50.362Z,0.90
2018-08-10T18:21:18.573Z,0.97
2018-08-10T18:23:46.776Z,1.03
2018-08-10T18:26:14.981Z,0.97
2018-08-10T18:28:42.983Z,1.37
2018-08-10T18:31:11.708Z,0.90
2018-08-10T18:33:39.960Z,1.20
2018-08-10T18:36:07.885Z,1.30
2018-08-10T18:38:36.081Z,1.10
2018-08-10T18:41:04.244Z,1.20
2018-08-10T18:43:32.184Z,1.70
2018-08-10T18:46:00.376Z,1.67
2018-08-10T18:48:28.580Z,1.20
2018-08-10T18:50:56.777Z,1.50
2018-08-10T18:53:24.711Z,1.00
2018-08-10T18:55:52.868Z,1.90
2018-08-10T18:58:21.052Z,1.40
2018-08-10T19:00:49.991Z,2.00
2018-08-10T19:03:18.198Z,1.40
2018-08-10T19:05:46.375Z,1.57
2018-08-10T19:08:14.544Z,1.17
2018-08-10T19:10:42.705Z,1.37
2018-08-10T19:13:10.901Z,1.60
2018-08-10T19:15:39.096Z,1.20
2018-08-10T19:18:07.410Z,1.10
2018-08-10T19:20:35.601Z,1.40
2018-08-10T19:23:03.640Z,1.33
2018-08-10T19:25:31.813Z,1.30
2018-08-10T19:27:59.977Z,1.50
2018-08-10T19:30:28.187Z,1.60
2018-08-10T19:32:56.118Z,1.00
2018-08-10T19:35:24.071Z,1.30
2018-08-10T19:37:52.254Z,1.10
2018-08-10T19:40:20.785Z,1.10
2018-08-10T19:42:48.973Z,1.10
2018-08-10T19:45:17.465Z,1.20
2018-08-10T19:47:45.757Z,1.20
2018-08-10T19:50:15.156Z,0.80
2018-08-10T19:52:43.342Z,1.40
2018-08-10T19:55:13.288Z,1.37
2018-08-10T19:57:41.562Z,1.23
2018-08-10T20:00:10.454Z,1.07
2018-08-10T20:02:38.416Z,1.37
2018-08-10T20:05:07.173Z,1.30
2018-08-10T20:07:35.399Z,1.40
2018-08-10T20:10:03.825Z,1.33
2018-08-10T20:12:32.026Z,1.30
2018-08-10T20:15:00.266Z,1.53
2018-08-10T20:17:28.219Z,1.40
2018-08-10T20:19:56.440Z,1.67
2018-08-10T20:22:24.654Z,1.10
2018-08-10T20:24:52.867Z,0.90
2018-08-10T20:27:21.088Z,1.50
2018-08-10T20:29:49.266Z,1.40
2018-08-10T20:32:17.457Z,1.20
2018-08-10T20:34:45.696Z,1.10
2018-08-10T20:37:13.653Z,1.37
2018-08-10T20:39:41.593Z,1.40
2018-08-10T20:42:09.970Z,1.27
2018-08-10T20:44:55.870Z,1.50
2018-08-10T20:47:24.241Z,1.70
2018-08-10T20:49:52.477Z,1.70
2018-08-10T20:52:20.669Z,1.40
2018-08-10T20:54:48.900Z,1.40
2018-08-10T20:57:17.109Z,1.40
2018-08-10T20:59:45.365Z,1.93
2018-08-10T21:02:13.692Z,1.50
2018-08-10T21:04:41.881Z,1.43
2018-08-10T21:07:11.429Z,1.80
2018-08-10T21:09:39.808Z,1.60
2018-08-10T21:12:08.032Z,1.67
2018-08-10T21:14:36.239Z,1.30
2018-08-10T21:17:04.557Z,1.60
2018-08-10T21:19:32.590Z,1.43
2018-08-10T21:22:00.760Z,1.47
2018-08-10T21:24:29.008Z,1.40
2018-08-10T21:26:57.000Z,1.40
2018-08-10T21:29:24.924Z,1.40
2018-08-10T21:31:53.169Z,1.63
2018-08-10T21:34:21.170Z,1.40
2018-08-10T21:36:49.370Z,1.43
2018-08-10T21:39:17.316Z,1.30
2018-08-10T21:41:45.536Z,1.23
2018-08-10T21:44:13.740Z,1.40
2018-08-10T21:46:41.950Z,1.43
2018-08-10T21:49:10.194Z,1.80
2018-08-10T21:51:38.387Z,1.67
2018-08-10T21:54:06.517Z,2.03
2018-08-10T21:56:34.489Z,2.10
2018-08-10T21:59:02.751Z,1.67
2018-08-10T22:01:30.742Z,1.60
2018-08-10T22:03:58.888Z,1.67
2018-08-10T22:06:26.826Z,1.63
2018-08-10T22:08:55.040Z,1.87
2018-08-10T22:11:23.242Z,2.20
2018-08-10T22:13:56.725Z,2.50
2018-08-10T22:16:30.324Z,2.03
2018-08-10T22:19:04.084Z,2.03
2018-08-10T22:21:32.310Z,1.70
2018-08-10T22:24:00.604Z,1.77
2018-08-10T22:26:28.556Z,1.60
2018-08-10T22:28:57.372Z,1.63
2018-08-10T22:31:25.826Z,1.77
2018-08-10T22:33:54.175Z,1.70
2018-08-10T22:36:22.448Z,1.70
2018-08-10T22:38:50.672Z,1.50
2018-08-10T22:41:19.001Z,1.53
2018-08-10T22:43:47.352Z,1.20
2018-08-10T22:46:15.654Z,1.80
2018-08-10T22:48:54.130Z,1.40
2018-08-10T22:51:22.505Z,1.50
2018-08-10T22:53:50.867Z,1.43
2018-08-10T22:56:18.877Z,2.27
2018-08-10T22:58:47.133Z,1.60
2018-08-10T23:01:15.526Z,1.57
2018-08-10T23:03:43.937Z,1.60
2018-08-10T23:06:12.203Z,1.80
2018-08-10T23:08:40.293Z,1.77
2018-08-10T23:11:08.702Z,2.50
2018-08-10T23:13:36.915Z,1.83
2018-08-10T23:16:05.087Z,2.07
2018-08-10T23:18:33.266Z,2.57
2018-08-10T23:21:01.445Z,1.73
2018-08-10T23:23:29.603Z,1.77
2018-08-10T23:25:57.513Z,1.70
2018-08-10T23:28:25.652Z,1.63
2018-08-10T23:30:53.817Z,1.87
2018-08-10T23:33:21.741Z,1.73
2018-08-10T23:35:49.876Z,1.67
2018-08-10T23:38:17.800Z,1.60
2018-08-10T23:40:45.711Z,2.10
2018-08-10T23:43:13.632Z,1.70
2018-08-10T23:45:41.818Z,1.83
2018-08-10T23:48:09.720Z,1.57
2018-08-10T23:50:37.892Z,1.80
2018-08-10T23:53:05.936Z,1.60
2018-08-10T23:55:34.089Z,1.90
2018-08-10T23:58:02.259Z,1.60
